Time;durP1;ratioP1;P1;durP2;ratioP2;P2;SDS_P1;SDS_P2;PMS_P1;PMS_P2;Temp;Humidity;BMP_temperature;BMP_pressure;BME280_temperature;BME280_humidity;BME280_pressure;Samples;Min_cycle;Max_cycle;Signal;HPM_P1;HPM_P2
2022/04/30 00:00:00;;;;;;;14.50;4.95;;;;;;;11.77;65.46;101975.84;5047411;28;20491;-73
2022/04/30 00:02:27;;;;;;;12.18;4.20;;;;;;;11.67;65.70;101981.44;5031168;28;20054;-73
2022/04/30 00:04:53;;;;;;;9.77;4.78;;;;;;;11.56;65.89;101977.47;5056451;28;20056;-73
2022/04/30 00:07:22;;;;;;;13.25;4.60;;;;;;;11.40;66.46;101978.94;5064319;28;20051;-73
2022/04/30 00:09:49;;;;;;;10.95;4.72;;;;;;;11.73;65.66;101977.75;5042873;28;20082;-73
2022/04/30 00:12:17;;;;;;;9.95;5.22;;;;;;;11.65;65.83;101972.72;5048381;28;20048;-73
2022/04/30 00:14:44;;;;;;;10.30;4.55;;;;;;;11.75;64.92;101978.53;5035379;28;20429;-73
2022/04/30 00:17:11;;;;;;;9.10;4.88;;;;;;;11.32;67.16;101980.97;5041423;28;20107;-73
2022/04/30 00:19:37;;;;;;;10.38;4.80;;;;;;;11.44;66.50;101978.78;5048999;28;20094;-73
2022/04/30 00:22:04;;;;;;;9.20;4.55;;;;;;;11.33;66.90;101980.91;5055250;28;20500;-72
2022/04/30 00:24:31;;;;;;;12.48;5.00;;;;;;;11.50;66.61;101972.44;5079645;28;20466;-72
2022/04/30 00:26:59;;;;;;;14.98;4.90;;;;;;;11.28;67.21;101966.22;5076947;28;20393;-73
2022/04/30 00:29:26;;;;;;;9.35;4.55;;;;;;;11.23;67.17;101953.28;5067071;28;20090;-73
2022/04/30 00:31:53;;;;;;;9.30;4.78;;;;;;;11.36;66.74;101964.19;5067809;28;20064;-73
2022/04/30 00:34:19;;;;;;;9.95;4.93;;;;;;;11.20;66.92;101974.34;5075357;28;20105;-73
2022/04/30 00:36:46;;;;;;;11.85;4.68;;;;;;;11.29;66.69;101975.81;5079787;28;20117;-73
2022/04/30 00:39:12;;;;;;;7.45;4.40;;;;;;;11.09;67.45;101966.00;5088045;28;20067;-73
2022/04/30 00:41:43;;;;;;;12.85;5.55;;;;;;;11.10;67.47;101967.72;5078296;28;20474;-73
2022/04/30 00:44:09;;;;;;;10.93;4.97;;;;;;;10.86;67.93;101973.81;5067608;28;20044;-73
2022/04/30 00:46:36;;;;;;;14.77;4.85;;;;;;;10.84;67.87;101972.97;5065116;28;20494;-73
2022/04/30 00:49:02;;;;;;;13.38;5.40;;;;;;;10.89;68.18;101976.31;5065162;28;20550;-73
2022/04/30 00:51:29;;;;;;;15.88;5.05;;;;;;;10.78;68.17;101976.69;5072867;28;20041;-73
2022/04/30 00:53:57;;;;;;;7.57;4.30;;;;;;;10.85;68.46;101972.94;5082600;28;20416;-73
2022/04/30 00:56:27;;;;;;;10.73;4.75;;;;;;;11.05;67.67;101980.13;5069993;28;20503;-74
2022/04/30 00:58:56;;;;;;;12.90;5.15;;;;;;;10.82;68.76;101986.19;5066632;28;20048;-73
2022/04/30 01:01:23;;;;;;;10.52;4.80;;;;;;;11.08;68.08;101985.31;5067491;28;20059;-73
2022/04/30 01:03:50;;;;;;;9.23;4.85;;;;;;;10.78;69.39;101981.06;5070927;28;20048;-73
2022/04/30 01:06:20;;;;;;;12.98;4.97;;;;;;;10.86;68.51;101979.91;5078982;28;20048;-73
2022/04/30 01:08:48;;;;;;;10.32;4.75;;;;;;;10.84;68.10;101978.22;5063719;28;20055;-73
2022/04/30 01:11:15;;;;;;;7.45;4.32;;;;;;;10.83;67.66;101985.25;5065361;28;20058;-72
2022/04/30 01:13:41;;;;;;;11.98;4.70;;;;;;;11.07;67.42;101987.06;5063734;28;20072;-73
2022/04/30 01:16:12;;;;;;;13.88;5.30;;;;;;;10.96;67.38;101981.31;5057381;28;20456;-72
2022/04/30 01:18:38;;;;;;;6.70;3.97;;;;;;;10.98;67.15;101979.50;5061680;28;20041;-72
2022/04/30 01:21:10;;;;;;;10.77;4.18;;;;;;;10.92;67.11;101984.97;5074367;28;20056;-71
2022/04/30 01:23:38;;;;;;;7.10;4.43;;;;;;;11.19;66.11;101988.41;5064694;28;20048;-72
2022/04/30 01:26:05;;;;;;;10.43;4.45;;;;;;;10.98;66.42;101989.13;5079594;28;20044;-72
2022/04/30 01:28:31;;;;;;;12.20;4.43;;;;;;;11.04;66.19;101986.31;5080481;28;20097;-71
2022/04/30 01:30:57;;;;;;;10.18;4.63;;;;;;;11.05;66.46;101988.88;5088340;28;20392;-71
2022/04/30 01:39:01;;;;;;;8.02;4.32;;;;;;;11.68;64.48;101977.88;5024799;28;20053;-71
2022/04/30 01:41:28;;;;;;;14.10;5.50;;;;;;;11.23;66.43;101979.53;5039511;28;20045;-71
2022/04/30 01:43:54;;;;;;;10.15;4.70;;;;;;;11.51;65.19;101972.38;5048532;28;20077;-71
2022/04/30 01:46:21;;;;;;;10.07;4.97;;;;;;;11.62;65.10;101977.25;5048975;28;20064;-72
2022/04/30 01:48:48;;;;;;;10.45;4.50;;;;;;;11.26;66.05;101989.06;5047833;28;20049;-72
2022/04/30 01:51:14;;;;;;;8.57;4.63;;;;;;;11.04;67.20;101976.69;5057017;28;20049;-72
2022/04/30 01:53:42;;;;;;;11.02;5.70;;;;;;;11.09;67.05;101987.84;5056622;28;20045;-72
2022/04/30 01:56:09;;;;;;;10.48;4.53;;;;;;;11.40;66.04;101971.03;5054727;28;20055;-72
2022/04/30 01:58:36;;;;;;;12.70;5.15;;;;;;;11.04;67.29;101967.94;5047956;28;20505;-72
2022/04/30 02:01:02;;;;;;;15.30;5.50;;;;;;;10.80;68.31;101964.38;5045320;28;20048;-72
2022/04/30 02:03:29;;;;;;;10.25;5.57;;;;;;;10.72;68.42;101967.25;5049324;28;20052;-72
2022/04/30 02:05:56;;;;;;;11.35;5.22;;;;;;;10.24;69.68;101974.03;5059239;28;20053;-72
2022/04/30 02:08:23;;;;;;;11.90;5.68;;;;;;;10.39;69.29;101965.69;5068684;28;20048;-72
2022/04/30 02:10:50;;;;;;;18.77;6.05;;;;;;;10.30;69.33;101965.13;5067749;28;20098;-72
2022/04/30 02:13:23;;;;;;;9.85;5.25;;;;;;;10.26;69.68;101961.75;5068793;28;20072;-72
2022/04/30 02:15:51;;;;;;;11.70;5.13;;;;;;;10.55;68.17;101963.44;5051806;28;20053;-72
2022/04/30 02:18:20;;;;;;;12.32;5.10;;;;;;;10.70;67.75;101962.97;5045816;28;20041;-72
2022/04/30 02:20:49;;;;;;;10.18;4.75;;;;;;;10.52;68.33;101963.56;5052965;28;20052;-72
2022/04/30 02:23:16;;;;;;;11.70;4.75;;;;;;;10.60;67.98;101964.16;5050825;28;20044;-72
2022/04/30 02:25:44;;;;;;;9.07;5.00;;;;;;;10.50;67.57;101960.97;5049059;28;20055;-72
2022/04/30 02:28:11;;;;;;;18.80;6.93;;;;;;;10.50;67.86;101955.72;5056504;28;20483;-72
2022/04/30 02:30:39;;;;;;;12.02;5.55;;;;;;;10.52;67.62;101953.94;5045908;28;20060;-72
2022/04/30 02:33:08;;;;;;;10.93;5.30;;;;;;;10.71;66.77;101946.31;5044040;28;20045;-72
2022/04/30 02:35:36;;;;;;;9.68;5.00;;;;;;;10.69;66.94;101953.38;5053132;28;20511;-72
2022/04/30 02:38:06;;;;;;;10.85;5.07;;;;;;;10.77;66.35;101942.63;5042645;28;20041;-72
2022/04/30 02:40:33;;;;;;;13.00;5.40;;;;;;;10.53;67.18;101947.75;5041690;28;20497;-72
2022/04/30 02:43:04;;;;;;;8.35;4.90;;;;;;;10.55;67.32;101938.09;5040701;28;20508;-72
2022/04/30 02:45:31;;;;;;;11.00;5.07;;;;;;;10.49;66.90;101938.31;5047596;28;20060;-72
2022/04/30 02:47:59;;;;;;;16.58;5.47;;;;;;;10.10;68.45;101940.34;5047845;28;20052;-72
2022/04/30 02:50:25;;;;;;;17.33;6.07;;;;;;;10.05;68.88;101941.41;5054588;28;20110;-72
2022/04/30 02:52:54;;;;;;;10.23;5.00;;;;;;;9.95;69.32;101939.97;5060145;28;20101;-72
2022/04/30 02:55:20;;;;;;;9.52;5.40;;;;;;;10.12;69.09;101937.69;5061052;28;20588;-71
2022/04/30 03:00:30;;;;;;;11.40;5.38;;;;;;;9.91;69.68;101941.81;5045342;28;20033;-72
2022/04/30 03:02:56;;;;;;;12.55;4.80;;;;;;;9.82;69.88;101947.34;5049869;28;20685;-72
2022/04/30 03:05:25;;;;;;;8.73;5.65;;;;;;;9.76;69.71;101935.25;5055734;28;20542;-73
2022/04/30 03:07:53;;;;;;;9.95;4.88;;;;;;;10.25;68.22;101941.69;5048854;28;20048;-74
2022/04/30 03:10:20;;;;;;;12.38;5.47;;;;;;;10.29;67.68;101945.06;5036999;28;20046;-75
2022/04/30 03:12:46;;;;;;;8.77;5.28;;;;;;;10.26;67.59;101953.88;5052121;28;20123;-74
2022/04/30 03:15:13;;;;;;;9.23;5.18;;;;;;;9.90;68.38;101939.25;5051505;28;20083;-74
2022/04/30 03:23:08;;;;;;;13.38;5.30;;;;;;;9.79;68.75;101935.16;5058276;28;20195;-73
2022/04/30 03:25:34;;;;;;;8.85;5.40;;;;;;;10.14;67.83;101938.50;5059257;28;20480;-71
2022/04/30 03:28:01;;;;;;;9.68;5.18;;;;;;;10.14;67.64;101938.50;5062647;28;20106;-71
2022/04/30 03:30:27;;;;;;;10.43;4.88;;;;;;;10.42;66.66;101928.88;5070828;28;20110;-72
2022/04/30 03:32:53;;;;;;;13.55;5.45;;;;;;;10.09;67.26;101933.38;5056416;28;20048;-72
2022/04/30 03:35:20;;;;;;;11.68;5.10;;;;;;;9.83;68.26;101928.06;5054781;28;20419;-74
2022/04/30 03:37:47;;;;;;;10.50;5.45;;;;;;;9.88;68.15;101923.56;5051753;28;20049;-73
2022/04/30 03:40:14;;;;;;;9.73;4.72;;;;;;;10.00;67.50;101932.81;5050952;28;20037;-74
2022/04/30 03:42:41;;;;;;;7.95;5.13;;;;;;;9.76;68.28;101932.66;5051263;28;20072;-74
2022/04/30 03:45:08;;;;;;;9.40;5.35;;;;;;;10.07;66.91;101940.47;5051265;28;20152;-73
2022/04/30 03:47:37;;;;;;;14.77;5.32;;;;;;;10.01;66.93;101938.03;5051236;28;20041;-73
2022/04/30 03:50:04;;;;;;;11.23;5.22;;;;;;;10.06;66.47;101937.88;5053751;28;20088;-73
2022/04/30 03:52:32;;;;;;;8.48;5.07;;;;;;;10.14;66.25;101947.25;5058257;28;20041;-72
2022/04/30 03:55:00;;;;;;;12.63;5.65;;;;;;;10.11;66.11;101947.31;5050677;28;20053;-73
2022/04/30 03:57:28;;;;;;;13.45;5.38;;;;;;;10.19;65.77;101952.38;5059615;28;20501;-73
2022/04/30 03:59:55;;;;;;;10.75;5.78;;;;;;;9.93;67.09;101941.78;5035628;28;20068;-74
2022/04/30 04:02:21;;;;;;;10.57;5.97;;;;;;;9.97;67.26;101944.28;5041725;28;20094;-72
2022/04/30 04:04:48;;;;;;;11.05;5.53;;;;;;;9.92;67.59;101945.28;5058424;28;20102;-72
2022/04/30 04:07:14;;;;;;;13.55;6.30;;;;;;;9.83;68.17;101945.59;5056885;28;20048;-72
2022/04/30 04:09:41;;;;;;;9.23;5.32;;;;;;;9.60;68.62;101949.72;5061674;28;20128;-70
2022/04/30 04:12:10;;;;;;;11.65;5.57;;;;;;;9.60;68.85;101944.50;5061608;28;21951;-71
2022/04/30 04:17:38;;;;;;;12.05;5.50;;;;;;;9.63;68.72;101944.41;5049005;28;20055;-72
2022/04/30 04:20:06;;;;;;;12.10;6.22;;;;;;;9.56;68.76;101948.09;5047956;28;20479;-72
2022/04/30 04:22:32;;;;;;;11.25;5.72;;;;;;;9.56;68.45;101945.47;5047121;28;20041;-71
2022/04/30 04:27:44;;;;;;;13.43;6.40;;;;;;;9.40;68.87;101944.16;5058912;28;20519;-71
2022/04/30 04:30:11;;;;;;;12.55;5.93;;;;;;;9.56;68.57;101936.75;5048004;28;20056;-71
2022/04/30 04:32:37;;;;;;;10.32;6.07;;;;;;;9.51;68.63;101933.41;5050044;28;20086;-72
2022/04/30 04:35:04;;;;;;;11.07;5.80;;;;;;;9.42;68.73;101939.78;5050078;28;20053;-72
2022/04/30 04:37:31;;;;;;;9.15;5.60;;;;;;;9.47;68.53;101948.34;5049730;28;20585;-72
2022/04/30 04:39:58;;;;;;;12.07;5.90;;;;;;;9.17;69.53;101938.69;5051389;28;20544;-72
2022/04/30 04:42:24;;;;;;;10.82;5.20;;;;;;;9.29;68.93;101954.06;5050154;28;20525;-72
2022/04/30 04:44:52;;;;;;;8.23;5.45;;;;;;;9.14;69.26;101952.72;5049553;28;20049;-72
2022/04/30 04:47:19;;;;;;;9.55;5.22;;;;;;;9.35;69.08;101953.06;5049881;28;20052;-71
2022/04/30 04:49:47;;;;;;;11.30;5.20;;;;;;;9.40;68.06;101957.25;5052146;28;20500;-73
2022/04/30 04:52:14;;;;;;;12.02;4.97;;;;;;;9.63;67.83;101956.63;5059144;28;20174;-72
2022/04/30 04:54:40;;;;;;;8.80;5.10;;;;;;;9.54;67.73;101965.59;5048699;28;20064;-72
2022/04/30 04:57:07;;;;;;;8.55;4.93;;;;;;;9.50;68.06;101974.44;5057517;28;20053;-71
2022/04/30 04:59:33;;;;;;;11.07;4.97;;;;;;;9.50;67.91;101968.31;5067109;28;20044;-71
2022/04/30 05:02:03;;;;;;;11.20;5.60;;;;;;;9.56;67.83;101966.41;5069405;28;20070;-71
2022/04/30 05:04:31;;;;;;;11.98;5.40;;;;;;;9.70;67.26;101964.25;5054486;28;20044;-71
2022/04/30 05:06:58;;;;;;;9.63;5.10;;;;;;;10.06;66.23;101961.47;5039578;28;20076;-71
2022/04/30 05:09:25;;;;;;;9.90;4.82;;;;;;;10.14;65.93;101968.22;5046182;28;20060;-71
2022/04/30 05:11:51;;;;;;;11.02;4.63;;;;;;;9.40;67.73;101969.50;5048052;28;20118;-71
2022/04/30 05:14:18;;;;;;;10.18;4.82;;;;;;;9.36;67.81;101966.09;5048256;28;20048;-71
2022/04/30 05:16:44;;;;;;;10.07;4.90;;;;;;;9.72;66.71;101965.06;5049430;28;20456;-71
2022/04/30 05:19:12;;;;;;;11.05;4.57;;;;;;;9.94;66.81;101953.97;5045186;28;20041;-71
2022/04/30 05:21:38;;;;;;;7.63;4.85;;;;;;;10.13;66.23;101965.59;5060051;28;20056;-72
2022/04/30 05:24:05;;;;;;;7.93;5.03;;;;;;;10.25;65.74;101957.41;5049484;28;20045;-71
2022/04/30 05:26:32;;;;;;;8.25;4.80;;;;;;;10.02;65.92;101959.81;5049569;28;20370;-71
2022/04/30 05:28:59;;;;;;;9.68;5.05;;;;;;;10.15;66.30;101969.09;5048423;28;20513;-71
2022/04/30 05:31:25;;;;;;;6.78;4.65;;;;;;;10.14;65.60;101967.31;5048792;28;20045;-71
2022/04/30 05:33:52;;;;;;;11.57;5.07;;;;;;;10.23;65.92;101961.84;5039605;28;20098;-71
2022/04/30 05:36:19;;;;;;;7.78;4.85;;;;;;;10.59;65.39;101963.31;5049191;28;20382;-73
2022/04/30 05:38:47;;;;;;;7.82;5.22;;;;;;;10.91;64.12;101961.38;5061513;28;20466;-72
2022/04/30 05:41:13;;;;;;;10.43;5.25;;;;;;;10.73;64.12;101957.59;5068896;28;20090;-72
2022/04/30 05:43:39;;;;;;;10.50;5.43;;;;;;;10.74;64.67;101960.19;5060546;28;20110;-72
2022/04/30 05:46:06;;;;;;;11.38;5.07;;;;;;;10.77;63.75;101964.47;5068718;28;20394;-72
2022/04/30 05:48:33;;;;;;;9.80;5.40;;;;;;;10.15;65.14;101963.84;5068697;28;20523;-72
2022/04/30 05:50:59;;;;;;;13.50;5.57;;;;;;;10.59;64.25;101965.06;5059134;28;20106;-72
2022/04/30 05:53:27;;;;;;;11.65;5.47;;;;;;;10.36;64.58;101970.19;5065593;28;20055;-72
2022/04/30 05:55:53;;;;;;;11.05;5.43;;;;;;;10.55;63.88;101966.94;5068707;28;20048;-72
2022/04/30 05:58:20;;;;;;;9.52;5.55;;;;;;;10.73;63.46;101966.34;5068380;28;20052;-72
2022/04/30 06:00:46;;;;;;;8.15;4.90;;;;;;;11.13;63.15;101972.84;5067761;28;20048;-72
2022/04/30 06:03:13;;;;;;;7.30;4.88;;;;;;;11.30;62.39;101969.66;5054325;28;20072;-72
2022/04/30 06:05:39;;;;;;;10.30;5.13;;;;;;;11.32;62.12;101973.94;5054511;28;20048;-72
2022/04/30 06:08:07;;;;;;;10.10;4.70;;;;;;;11.41;61.43;101964.88;5068344;28;20063;-72
2022/04/30 06:10:35;;;;;;;8.65;5.20;;;;;;;11.46;62.19;101974.31;5067701;28;20094;-72
2022/04/30 06:13:02;;;;;;;10.13;5.53;;;;;;;11.62;61.55;101967.59;5059175;28;20067;-72
2022/04/30 06:15:29;;;;;;;9.95;4.53;;;;;;;11.55;61.80;101981.88;5050775;28;20083;-72
2022/04/30 06:17:55;;;;;;;8.52;4.72;;;;;;;11.82;60.82;101972.16;5046330;28;20722;-72
2022/04/30 06:20:22;;;;;;;9.73;4.70;;;;;;;11.94;60.44;101973.44;5053953;28;20101;-72
2022/04/30 06:22:48;;;;;;;9.52;5.03;;;;;;;11.86;59.78;101981.63;5056690;28;20413;-72
2022/04/30 06:25:15;;;;;;;9.88;4.90;;;;;;;12.22;59.51;101974.13;5048406;28;20091;-72
2022/04/30 06:27:42;;;;;;;9.98;4.82;;;;;;;12.38;59.38;101980.47;5048184;28;20478;-72
2022/04/30 06:30:10;;;;;;;10.98;5.22;;;;;;;12.65;59.41;101987.28;5047012;28;20156;-72
2022/04/30 06:32:36;;;;;;;8.25;4.25;;;;;;;12.50;57.79;101977.38;5038714;28;20342;-71
2022/04/30 06:35:03;;;;;;;8.32;4.93;;;;;;;12.62;58.18;101976.88;5046202;28;20041;-71
2022/04/30 06:37:30;;;;;;;7.25;4.78;;;;;;;12.38;58.83;101974.38;5048013;28;20045;-71
2022/04/30 06:39:56;;;;;;;7.35;4.88;;;;;;;12.63;58.42;101970.72;5053116;28;20052;-71
2022/04/30 06:42:23;;;;;;;6.75;4.40;;;;;;;13.10;57.79;101974.03;5075823;28;20036;-71
2022/04/30 06:44:51;;;;;;;10.35;4.78;;;;;;;13.28;56.15;101963.59;5078967;28;20048;-71
2022/04/30 06:47:18;;;;;;;11.55;5.05;;;;;;;13.78;56.60;101964.88;5088450;28;20052;-72
2022/04/30 06:49:45;;;;;;;6.38;4.10;;;;;;;14.35;55.63;101957.81;5059263;28;20048;-72
2022/04/30 06:52:11;;;;;;;9.25;4.25;;;;;;;14.46;54.40;101958.16;5059326;28;20102;-72
2022/04/30 06:57:22;;;;;;;7.53;4.22;;;;;;;15.46;51.90;101958.31;5067598;28;20412;-72
2022/04/30 06:59:51;;;;;;;8.85;4.45;;;;;;;15.70;50.39;101956.22;5062879;28;20634;-72
2022/04/30 07:02:21;;;;;;;7.97;4.43;;;;;;;15.89;49.20;101954.28;5043170;28;20047;-72
2022/04/30 07:04:51;;;;;;;8.45;4.20;;;;;;;16.01;48.09;101951.78;5044126;28;20047;-72
2022/04/30 07:07:18;;;;;;;9.23;4.65;;;;;;;16.26;47.47;101953.91;5047751;28;20064;-72
2022/04/30 07:09:45;;;;;;;6.68;3.90;;;;;;;15.91;47.13;101953.25;5047006;28;20531;-72
2022/04/30 07:12:13;;;;;;;8.13;3.97;;;;;;;16.45;49.35;101961.69;5047072;28;20057;-72
2022/04/30 07:14:40;;;;;;;6.47;3.60;;;;;;;16.89;47.67;101967.94;5059185;28;20059;-72
2022/04/30 07:17:07;;;;;;;7.13;3.60;;;;;;;17.18;47.04;101968.91;5067478;28;20090;-72
2022/04/30 07:19:35;;;;;;;10.07;4.03;;;;;;;16.88;44.93;101968.91;5057821;28;20106;-71
2022/04/30 07:22:02;;;;;;;6.25;3.40;;;;;;;17.31;44.32;101969.00;5055637;28;20045;-71
2022/04/30 07:24:29;;;;;;;7.97;3.78;;;;;;;18.13;45.68;101967.41;5047254;28;20049;-71
2022/04/30 07:26:55;;;;;;;9.45;3.45;;;;;;;18.19;45.57;101963.50;5047699;28;20710;-71
2022/04/30 07:29:21;;;;;;;11.52;3.53;;;;;;;18.10;44.85;101959.66;5047049;28;20560;-72
2022/04/30 07:31:48;;;;;;;7.90;3.47;;;;;;;18.13;41.84;101964.75;5046404;28;20075;-72
2022/04/30 07:34:14;;;;;;;5.32;3.53;;;;;;;18.14;41.12;101955.00;5039819;28;20049;-71
2022/04/30 07:36:42;;;;;;;5.45;3.13;;;;;;;18.06;42.67;101963.44;5046907;28;20478;-71
2022/04/30 07:39:08;;;;;;;6.75;3.35;;;;;;;18.41;41.36;101962.00;5038278;28;20057;-72
2022/04/30 07:41:35;;;;;;;7.28;3.20;;;;;;;19.04;40.62;101965.84;5037365;28;20071;-72
2022/04/30 07:44:02;;;;;;;8.20;3.22;;;;;;;19.30;39.84;101954.28;5058851;28;20049;-72
2022/04/30 07:46:28;;;;;;;6.40;3.83;;;;;;;19.68;39.70;101955.16;5052312;28;20098;-72
2022/04/30 07:48:54;;;;;;;8.20;3.35;;;;;;;19.94;38.44;101955.97;5046542;28;20122;-72
2022/04/30 07:51:33;;;;;;;14.27;3.63;;;;;;;19.25;38.42;101956.44;5055204;28;20171;-72
2022/04/30 07:54:02;;;;;;;7.95;3.10;;;;;;;19.21;39.07;101960.25;5037664;28;20053;-72
2022/04/30 07:56:28;;;;;;;8.18;3.40;;;;;;;19.66;40.17;101961.56;5048550;28;20505;-72
2022/04/30 07:58:55;;;;;;;12.55;3.78;;;;;;;19.47;37.70;101956.69;5050166;28;20119;-72
2022/04/30 08:01:22;;;;;;;7.15;3.30;;;;;;;19.57;39.75;101967.53;5050809;28;20037;-72
2022/04/30 08:03:48;;;;;;;5.63;3.15;;;;;;;19.58;39.40;101969.22;5049571;28;20126;-72
2022/04/30 08:06:15;;;;;;;5.00;3.22;;;;;;;19.92;39.17;101977.38;5032838;28;20064;-72
2022/04/30 08:08:42;;;;;;;7.00;3.75;;;;;;;19.74;39.36;101972.50;5036605;28;20045;-72
2022/04/30 08:11:09;;;;;;;6.75;3.92;;;;;;;19.31;40.29;101982.59;5049134;28;20045;-72
2022/04/30 08:13:36;;;;;;;10.95;3.50;;;;;;;18.72;38.71;101982.16;5060810;28;20464;-72
2022/04/30 08:16:03;;;;;;;12.40;3.78;;;;;;;19.04;39.87;101972.03;5057044;28;20044;-72
2022/04/30 08:18:29;;;;;;;8.23;3.58;;;;;;;19.25;40.78;101985.69;5048297;28;20582;-72
2022/04/30 08:20:55;;;;;;;11.02;3.92;;;;;;;19.19;41.12;101975.44;5052937;28;20103;-71
2022/04/30 08:23:23;;;;;;;7.15;3.25;;;;;;;19.37;41.38;101969.72;5056622;28;20051;-70
2022/04/30 08:25:49;;;;;;;8.02;3.30;;;;;;;19.18;39.84;101963.13;5061769;28;20123;-70
2022/04/30 08:28:17;;;;;;;10.23;3.90;;;;;;;18.90;40.52;101966.78;5065362;28;20044;-69
2022/04/30 08:30:43;;;;;;;11.60;3.53;;;;;;;18.05;41.50;101964.38;5068158;28;20138;-70
2022/04/30 08:33:09;;;;;;;10.60;4.10;;;;;;;18.70;43.89;101977.91;5047628;28;20041;-70
2022/04/30 08:35:36;;;;;;;6.80;4.00;;;;;;;18.71;44.15;101971.63;5042497;28;20045;-70
2022/04/30 08:38:02;;;;;;;10.00;4.15;;;;;;;18.81;42.40;101967.38;5068417;28;20048;-71
2022/04/30 08:40:28;;;;;;;7.53;3.90;;;;;;;19.26;39.62;101963.44;5067823;28;20040;-71
2022/04/30 08:42:55;;;;;;;8.38;3.50;;;;;;;19.89;42.20;101955.44;5077653;28;20116;-71
2022/04/30 08:45:23;;;;;;;8.18;3.72;;;;;;;19.92;39.84;101957.88;5072599;28;20562;-71
2022/04/30 08:47:51;;;;;;;8.65;3.45;;;;;;;19.96;40.38;101955.84;5069670;28;20098;-70
2022/04/30 08:50:17;;;;;;;7.05;3.25;;;;;;;19.99;40.07;101953.00;5055524;28;20049;-71
2022/04/30 08:52:44;;;;;;;14.43;3.72;;;;;;;20.67;39.04;101955.94;5056958;28;20045;-71
2022/04/30 08:55:11;;;;;;;8.90;3.70;;;;;;;21.12;38.88;101957.84;5049223;28;20082;-71
2022/04/30 08:57:38;;;;;;;9.23;3.22;;;;;;;21.09;36.29;101957.19;5048845;28;20051;-71
2022/04/30 09:00:07;;;;;;;7.47;3.85;;;;;;;20.79;38.15;101947.88;5049141;28;20049;-71
2022/04/30 09:02:34;;;;;;;9.32;3.70;;;;;;;21.19;38.33;101955.53;5043834;28;20149;-71
2022/04/30 09:05:01;;;;;;;7.30;3.47;;;;;;;20.93;37.85;101951.31;5039951;28;20052;-71
2022/04/30 09:07:27;;;;;;;8.20;4.13;;;;;;;20.94;40.17;101947.69;5046910;28;20049;-71
2022/04/30 09:09:55;;;;;;;6.03;3.65;;;;;;;21.32;39.23;101942.97;5049004;28;20083;-71
2022/04/30 09:12:22;;;;;;;7.72;3.63;;;;;;;21.44;38.47;101943.78;5048072;28;20082;-71
2022/04/30 09:14:48;;;;;;;9.38;3.47;;;;;;;21.31;35.90;101947.44;5053400;28;20074;-71
2022/04/30 09:17:15;;;;;;;9.00;3.50;;;;;;;21.37;37.69;101946.09;5054021;28;20049;-71
2022/04/30 09:19:48;;;;;;;9.55;3.90;;;;;;;21.51;39.28;101947.69;5044253;28;20072;-71
2022/04/30 09:22:15;;;;;;;7.43;4.28;;;;;;;21.89;36.63;101941.97;5058423;28;20040;-71
2022/04/30 09:24:46;;;;;;;17.45;4.63;;;;;;;22.14;37.08;101941.72;5049032;28;20049;-71
2022/04/30 09:27:14;;;;;;;;;;;;;;;21.73;36.73;101945.03;5049046;28;20051;-71
2022/04/30 09:29:40;;;;;;;9.00;3.80;;;;;;;21.62;34.83;101937.88;5047665;28;19970;-71
2022/04/30 09:32:07;;;;;;;7.13;3.65;;;;;;;21.49;37.15;101938.97;5048114;28;20103;-71
2022/04/30 09:37:45;;;;;;;10.85;3.60;;;;;;;22.97;37.50;101929.41;5048250;28;20075;-71
2022/04/30 09:40:23;;;;;;;9.65;3.95;;;;;;;23.17;36.68;101920.53;5047620;28;20051;-71
2022/04/30 09:42:50;;;;;;;9.98;4.22;;;;;;;23.29;36.31;101919.47;5047196;28;20052;-71
2022/04/30 09:45:24;;;;;;;6.43;4.22;;;;;;;23.62;35.49;101917.53;5048875;28;20044;-70
2022/04/30 09:47:51;;;;;;;7.80;3.83;;;;;;;23.65;34.31;101914.59;5045907;28;20270;-72
2022/04/30 09:55:52;;;;;;;8.55;3.63;;;;;;;23.45;35.19;101911.00;5048181;28;20574;-72
2022/04/30 09:58:22;;;;;;;11.02;4.10;;;;;;;23.63;35.98;101904.03;5047928;28;20049;-72
2022/04/30 10:00:48;;;;;;;9.70;3.47;;;;;;;23.54;33.90;101910.16;5046080;28;20102;-72
2022/04/30 10:03:16;;;;;;;5.15;3.20;;;;;;;23.45;35.79;101896.75;5045622;28;20044;-72
2022/04/30 10:05:44;;;;;;;6.50;3.17;;;;;;;23.40;35.78;101905.16;5047950;28;20562;-75
2022/04/30 10:08:12;;;;;;;9.43;3.70;;;;;;;23.27;33.01;101897.34;5052852;28;20086;-72
2022/04/30 10:10:47;;;;;;;8.48;4.00;;;;;;;23.37;36.39;101902.75;5060449;28;20505;-72
2022/04/30 10:13:21;;;;;;;6.35;4.03;;;;;;;22.91;34.07;101897.81;5045257;28;20408;-72
2022/04/30 10:15:53;;;;;;;8.50;3.95;;;;;;;23.45;35.32;101899.44;5049139;28;20045;-72
2022/04/30 10:18:24;;;;;;;8.52;3.95;;;;;;;23.42;35.07;101897.03;5046603;28;20041;-72
2022/04/30 10:20:51;;;;;;;9.30;4.70;;;;;;;23.09;32.81;101893.59;5045189;28;20123;-71
2022/04/30 10:23:19;;;;;;;7.32;3.88;;;;;;;23.48;36.98;101896.47;5056208;28;20437;-71
2022/04/30 10:25:47;;;;;;;14.48;4.32;;;;;;;23.81;36.21;101892.66;5047037;28;20154;-72
2022/04/30 10:28:21;;;;;;;11.35;3.83;;;;;;;24.08;34.18;101888.34;5047290;28;20045;-71
2022/04/30 10:30:59;;;;;;;8.07;3.72;;;;;;;24.23;35.43;101887.00;5047480;28;20041;-72
2022/04/30 10:33:26;;;;;;;10.85;3.78;;;;;;;24.02;32.83;101872.81;5045781;28;20037;-71
2022/04/30 10:36:04;;;;;;;8.77;3.13;;;;;;;23.90;31.27;101878.44;5047979;28;20047;-71
2022/04/30 10:38:32;;;;;;;12.85;3.83;;;;;;;24.23;39.41;101883.47;5047420;28;20425;-71
2022/04/30 10:40:59;;;;;;;8.07;3.70;;;;;;;24.49;37.47;101875.72;5047532;28;20050;-72
2022/04/30 10:43:31;;;;;;;9.02;3.60;;;;;;;24.57;34.83;101882.06;5055955;28;20106;-71
2022/04/30 10:45:59;;;;;;;8.80;4.07;;;;;;;24.62;34.23;101866.38;5047774;28;20052;-71
2022/04/30 10:48:26;;;;;;;7.47;3.55;;;;;;;24.61;33.29;101866.53;5047978;28;20420;-71
2022/04/30 10:51:04;;;;;;;16.30;4.28;;;;;;;24.67;36.09;101863.28;5054861;28;20106;-71
2022/04/30 10:53:33;;;;;;;7.13;3.90;;;;;;;24.67;31.95;101861.44;5047695;28;20041;-71
2022/04/30 10:56:01;;;;;;;6.05;3.88;;;;;;;24.02;30.85;101866.63;5037455;28;20100;-71
2022/04/30 10:58:30;;;;;;;11.05;3.88;;;;;;;24.31;35.90;101851.44;5027915;28;20045;-71
2022/04/30 11:00:57;;;;;;;16.05;4.55;;;;;;;24.56;34.91;101858.91;5027082;28;20080;-71
2022/04/30 11:03:26;;;;;;;4.85;3.10;;;;;;;24.09;31.75;101854.38;5036287;28;20090;-71
2022/04/30 11:05:53;;;;;;;8.20;3.47;;;;;;;24.40;32.87;101844.38;5053556;28;20492;-72
2022/04/30 11:08:19;;;;;;;9.63;4.53;;;;;;;24.63;35.70;101845.78;5045181;28;20539;-72
2022/04/30 11:10:55;;;;;;;5.95;3.60;;;;;;;24.52;33.58;101843.25;5045780;28;20099;-71
2022/04/30 11:13:22;;;;;;;9.70;4.05;;;;;;;24.43;33.46;101842.25;5053294;28;20044;-71
2022/04/30 11:15:49;;;;;;;7.80;4.03;;;;;;;24.45;33.92;101839.44;5059674;28;20498;-71
2022/04/30 11:18:19;;;;;;;6.70;4.00;;;;;;;24.16;34.03;101834.94;5066137;28;20503;-72
2022/04/30 11:20:46;;;;;;;6.30;3.83;;;;;;;24.33;34.68;101838.75;5072656;28;20141;-72
2022/04/30 11:23:21;;;;;;;6.93;3.70;;;;;;;24.38;34.81;101824.91;5076694;28;20102;-71
2022/04/30 11:25:47;;;;;;;7.85;4.45;;;;;;;24.11;31.42;101829.13;5047792;28;20045;-71
2022/04/30 11:28:15;;;;;;;9.13;3.85;;;;;;;23.77;33.42;101819.75;5045073;28;20044;-72
2022/04/30 11:30:43;;;;;;;6.15;3.50;;;;;;;23.60;35.25;101817.75;5047118;28;20586;-72
2022/04/30 11:33:10;;;;;;;6.53;3.42;;;;;;;23.89;33.93;101813.31;5050657;28;20056;-72
2022/04/30 11:35:37;;;;;;;5.97;3.55;;;;;;;23.92;31.52;101807.66;5047068;28;20114;-72
2022/04/30 11:38:04;;;;;;;11.77;4.18;;;;;;;24.18;35.27;101822.22;5045334;28;20210;-72
2022/04/30 11:40:32;;;;;;;9.93;3.65;;;;;;;24.61;35.68;101811.03;5033938;28;20990;-72
2022/04/30 11:43:01;;;;;;;9.32;3.67;;;;;;;24.42;33.49;101812.91;5028887;28;20084;-72
2022/04/30 11:45:31;;;;;;;7.35;3.17;;;;;;;24.60;34.39;101805.84;5033959;28;20048;-72
2022/04/30 11:47:58;;;;;;;7.65;3.63;;;;;;;24.62;36.50;101802.00;5054915;28;20060;-72
2022/04/30 11:50:25;;;;;;;9.10;3.95;;;;;;;24.39;33.59;101806.00;5078354;28;20047;-72
2022/04/30 11:52:52;;;;;;;7.85;3.60;;;;;;;23.94;32.43;101800.34;5072249;28;20484;-72